Aviosuperficie "San Mauro"

METAR LIPI TAF LIPQ
4 °C
°C
-
°C
1h
Âge
19:07:05
LT
18:07
UTC
0 ft

1.000

2.000

3.000

4.000

5.000

VFR
<?= Yii::t('app', 'Wind direction') ?> <?= Yii::t('app', 'of'); ?>
250°
07:33
Lever du soleil
70%
Humidité
Cisaillement du vent
Fermé/neige
Portée visuelle RWY
Condition RWY
Visibilité vert.
Visibilité min.
CAVOK
Tendance
Correction
Rapport spécial
1023 hPa
QNH
METAR LIPI 291655Z 25003KT CAVOK 04/M01 Q1023 RMK SCT SCT150 VIS MIN 9999 WIND THR06 28003KT WIND THR24 27003KT BLU
Aucun nuage
1 kt
1 kt
19:00
VFR
5 kt
20:00
VFR
5 kt
21:00
VFR
5 kt
22:00
VFR
5 kt
23:00
IFR
5 kt
00:00
IFR
5 kt
01:00
IFR
5 kt
10 km+
Vue
Non
Base cloud
3 kt
Vent
metar-taf.com/IT-0372

Metar-Taf.com

Décodeur visuel

Nous et des tiers suivons ton comportement Internet sur notre site Web à l'aide de cookies. Si tu continues, nous supposons que tu es d'accord avec notre Politique en matière de cookies.